createdAt,value
2018-09-04T00:00:37.083Z,4.20
2018-09-04T00:03:05.526Z,4.10
2018-09-04T00:05:33.955Z,4.40
2018-09-04T00:08:02.351Z,4.62
2018-09-04T00:10:30.818Z,4.55
2018-09-04T00:12:59.246Z,4.05
2018-09-04T00:15:27.699Z,4.53
2018-09-04T00:17:56.174Z,4.30
2018-09-04T00:20:24.616Z,4.20
2018-09-04T00:22:53.088Z,3.95
2018-09-04T00:25:21.567Z,4.58
2018-09-04T00:27:50.089Z,4.50
2018-09-04T00:30:18.522Z,4.35
2018-09-04T00:32:46.970Z,4.58
2018-09-04T00:35:18.433Z,4.85
2018-09-04T00:37:46.942Z,4.30
2018-09-04T00:40:15.480Z,4.72
2018-09-04T00:42:44.322Z,3.77
2018-09-04T00:45:12.761Z,4.80
2018-09-04T00:47:41.232Z,5.30
2018-09-04T00:50:09.687Z,4.35
2018-09-04T00:52:38.141Z,4.50
2018-09-04T00:55:06.684Z,4.37
2018-09-04T00:57:35.209Z,4.65
2018-09-04T01:00:03.868Z,4.05
2018-09-04T01:02:32.360Z,4.75
2018-09-04T01:05:00.816Z,4.75
2018-09-04T01:07:29.234Z,4.42
2018-09-04T01:09:57.683Z,4.67
2018-09-04T01:12:26.132Z,4.72
2018-09-04T01:14:55.306Z,4.72
2018-09-04T01:17:23.735Z,4.30
2018-09-04T01:19:52.158Z,4.58
2018-09-04T01:22:20.921Z,4.80
2018-09-04T01:24:49.347Z,4.90
2018-09-04T01:27:17.870Z,4.67
2018-09-04T01:29:46.304Z,5.33
2018-09-04T01:32:14.735Z,4.60
2018-09-04T01:34:43.212Z,4.50
2018-09-04T01:37:11.694Z,4.78
2018-09-04T01:39:40.181Z,4.70
2018-09-04T01:42:08.632Z,5.40
2018-09-04T01:44:37.093Z,4.55
2018-09-04T01:47:05.700Z,4.62
2018-09-04T01:49:34.157Z,4.67
2018-09-04T01:52:02.601Z,4.83
2018-09-04T01:54:30.989Z,5.08
2018-09-04T01:56:59.492Z,5.37
2018-09-04T01:59:27.891Z,4.75
2018-09-04T02:01:56.335Z,4.70
2018-09-04T02:04:24.765Z,4.78
2018-09-04T02:06:53.192Z,5.20
2018-09-04T02:09:22.483Z,4.60
2018-09-04T02:11:50.856Z,5.40
2018-09-04T02:14:19.318Z,4.92
2018-09-04T02:16:47.704Z,5.00
2018-09-04T02:19:16.149Z,4.40
2018-09-04T02:21:44.529Z,4.20
2018-09-04T02:24:12.947Z,5.20
2018-09-04T02:26:41.288Z,4.90
2018-09-04T02:29:09.892Z,5.03
2018-09-04T02:31:38.280Z,5.12
2018-09-04T02:34:06.706Z,4.53
2018-09-04T02:36:35.113Z,4.85
2018-09-04T02:39:03.590Z,5.80
2018-09-04T02:41:31.995Z,4.75
2018-09-04T02:44:00.460Z,5.43
2018-09-04T02:46:28.842Z,5.20
2018-09-04T02:48:57.242Z,4.67
2018-09-04T02:51:25.823Z,4.40
2018-09-04T02:53:54.282Z,5.10
2018-09-04T02:56:22.710Z,4.85
2018-09-04T02:58:51.129Z,5.03
2018-09-04T03:01:19.504Z,4.70
2018-09-04T03:03:47.954Z,5.22
2018-09-04T03:06:16.333Z,5.03
2018-09-04T03:08:44.760Z,5.30
2018-09-04T03:11:14.092Z,5.73
2018-09-04T03:13:42.522Z,5.30
2018-09-04T03:16:11.005Z,5.28
2018-09-04T03:18:39.533Z,5.78
2018-09-04T03:21:07.886Z,5.83
2018-09-04T03:23:36.297Z,5.37
2018-09-04T03:26:04.736Z,5.10
2018-09-04T03:28:33.131Z,5.22
2018-09-04T03:31:01.538Z,5.72
2018-09-04T03:33:29.951Z,5.85
2018-09-04T03:35:58.375Z,4.90
2018-09-04T03:38:26.903Z,5.20
2018-09-04T03:40:55.466Z,5.50
2018-09-04T03:43:23.967Z,5.97
2018-09-04T03:45:52.398Z,5.50
2018-09-04T03:48:20.838Z,4.60
2018-09-04T03:50:49.363Z,4.80
2018-09-04T03:53:17.821Z,5.47
2018-09-04T03:55:46.340Z,5.47
2018-09-04T03:58:14.766Z,5.80
2018-09-04T04:00:43.151Z,5.17
2018-09-04T04:03:11.672Z,5.15
2018-09-04T04:05:40.115Z,5.30
2018-09-04T04:08:08.599Z,5.00
2018-09-04T04:10:37.063Z,4.57
2018-09-04T04:13:05.561Z,5.10
2018-09-04T04:15:34.218Z,6.00
2018-09-04T04:18:02.710Z,4.97
2018-09-04T04:20:31.192Z,5.40
2018-09-04T04:22:59.589Z,5.50
2018-09-04T04:25:28.142Z,5.80
2018-09-04T04:27:56.659Z,6.27
2018-09-04T04:30:25.118Z,5.70
2018-09-04T04:32:53.637Z,5.50
2018-09-04T04:35:22.107Z,5.17
2018-09-04T04:37:50.564Z,5.43
2018-09-04T04:40:19.045Z,5.57
2018-09-04T04:42:47.493Z,5.53
2018-09-04T04:45:15.930Z,5.63
2018-09-04T04:47:49.001Z,5.00
2018-09-04T04:50:18.087Z,5.20
2018-09-04T04:52:46.620Z,5.67
2018-09-04T04:55:15.046Z,5.20
2018-09-04T04:57:43.541Z,5.20
2018-09-04T05:00:12.101Z,5.83
2018-09-04T05:02:40.519Z,5.30
2018-09-04T05:05:09.192Z,5.80
2018-09-04T05:07:37.744Z,4.70
2018-09-04T05:10:06.544Z,5.23
2018-09-04T05:12:34.993Z,4.65
2018-09-04T05:15:03.393Z,5.60
2018-09-04T05:17:31.772Z,5.60
2018-09-04T05:20:00.298Z,4.70
2018-09-04T05:22:28.796Z,5.20
2018-09-04T05:24:57.291Z,4.83
2018-09-04T05:27:25.697Z,4.80
2018-09-04T05:29:54.426Z,5.07
2018-09-04T05:32:29.257Z,4.40
2018-09-04T05:34:57.768Z,4.50
2018-09-04T05:37:26.217Z,4.73
2018-09-04T05:39:54.836Z,4.67
2018-09-04T05:42:27.497Z,4.40
2018-09-04T05:44:56.001Z,4.33
2018-09-04T05:47:26.938Z,4.50
2018-09-04T05:49:55.535Z,4.90
2018-09-04T05:52:23.940Z,5.17
2018-09-04T05:54:52.339Z,4.65
2018-09-04T05:57:20.805Z,4.77
2018-09-04T05:59:49.271Z,4.00
2018-09-04T06:02:17.753Z,4.22
2018-09-04T06:04:46.310Z,4.90
2018-09-04T06:07:14.778Z,3.90
2018-09-04T06:09:43.289Z,4.10
2018-09-04T06:12:11.693Z,4.25
2018-09-04T06:14:40.142Z,4.10
2018-09-04T06:17:08.600Z,4.30
2018-09-04T06:19:37.087Z,4.60
2018-09-04T06:22:05.751Z,3.83
2018-09-04T06:24:34.331Z,4.30
2018-09-04T06:27:02.773Z,3.83
2018-09-04T06:29:31.259Z,4.28
2018-09-04T06:31:59.667Z,3.67
2018-09-04T06:34:28.080Z,3.80
2018-09-04T06:36:56.861Z,3.77
2018-09-04T06:39:25.252Z,3.87
2018-09-04T06:41:53.682Z,3.37
2018-09-04T06:44:22.067Z,3.25
2018-09-04T06:46:50.551Z,4.40
2018-09-04T06:49:19.091Z,3.55
2018-09-04T06:51:47.506Z,4.22
2018-09-04T06:54:15.927Z,3.67
2018-09-04T06:56:44.390Z,4.03
2018-09-04T06:59:12.806Z,3.30
2018-09-04T07:01:41.238Z,4.17
2018-09-04T07:04:09.802Z,3.50
2018-09-04T07:06:38.270Z,3.30
2018-09-04T07:09:08.701Z,3.58
2018-09-04T07:11:37.215Z,3.42
2018-09-04T07:14:05.604Z,3.60
2018-09-04T07:16:34.030Z,3.20
2018-09-04T07:19:02.473Z,2.85
2018-09-04T07:21:31.127Z,3.47
2018-09-04T07:23:59.559Z,3.22
2018-09-04T07:26:28.091Z,2.95
2018-09-04T07:28:56.525Z,3.42
2018-09-04T07:31:25.913Z,3.35
2018-09-04T07:33:56.288Z,3.50
2018-09-04T07:36:24.832Z,2.83
2018-09-04T07:38:54.621Z,3.08
2018-09-04T07:41:23.091Z,3.37
2018-09-04T07:43:51.486Z,3.08
2018-09-04T07:46:19.938Z,3.45
2018-09-04T07:48:48.298Z,3.20
2018-09-04T07:51:16.720Z,3.02
2018-09-04T07:53:45.205Z,3.20
2018-09-04T07:56:13.936Z,3.12
2018-09-04T07:58:42.332Z,2.65
2018-09-04T08:01:10.712Z,3.15
2018-09-04T08:03:39.077Z,3.33
2018-09-04T08:06:07.466Z,3.50
2018-09-04T08:08:36.157Z,3.70
2018-09-04T08:11:04.922Z,3.33
2018-09-04T08:13:33.311Z,3.15
2018-09-04T08:16:01.705Z,3.20
2018-09-04T08:18:30.094Z,3.40
2018-09-04T08:20:58.870Z,3.47
2018-09-04T08:23:27.280Z,3.20
2018-09-04T08:25:55.755Z,2.92
2018-09-04T08:28:24.153Z,3.10
2018-09-04T08:30:52.668Z,2.80
2018-09-04T08:33:21.829Z,2.83
2018-09-04T08:35:50.322Z,2.80
2018-09-04T08:38:18.916Z,2.70
2018-09-04T08:40:47.326Z,3.67
2018-09-04T08:43:16.950Z,3.00
2018-09-04T08:45:45.650Z,2.67
2018-09-04T08:48:18.761Z,2.77
2018-09-04T08:50:47.193Z,3.12
2018-09-04T08:53:16.382Z,3.02
2018-09-04T08:55:44.848Z,2.72
2018-09-04T08:58:13.318Z,2.70
2018-09-04T09:00:41.705Z,3.15
2018-09-04T09:03:10.380Z,2.45
2018-09-04T09:05:39.080Z,2.27
2018-09-04T09:08:07.504Z,2.58
2018-09-04T09:10:36.037Z,2.52
2018-09-04T09:13:04.523Z,2.77
2018-09-04T09:15:32.915Z,2.37
2018-09-04T09:18:01.378Z,2.52
2018-09-04T09:20:29.771Z,2.72
2018-09-04T09:22:58.320Z,2.70
2018-09-04T09:25:27.087Z,2.77
2018-09-04T09:27:55.587Z,2.65
2018-09-04T09:30:24.104Z,2.33
2018-09-04T09:32:52.532Z,2.52
2018-09-04T09:35:21.097Z,2.37
2018-09-04T09:37:49.519Z,2.25
2018-09-04T09:40:17.969Z,2.67
2018-09-04T09:42:46.553Z,2.08
2018-09-04T09:45:15.055Z,2.27
2018-09-04T09:47:48.507Z,2.58
2018-09-04T09:50:17.572Z,2.62
2018-09-04T09:52:47.095Z,2.67
2018-09-04T09:55:15.440Z,2.55
2018-09-04T09:57:43.877Z,2.58
2018-09-04T10:00:18.402Z,2.35
2018-09-04T10:02:55.523Z,2.87
2018-09-04T10:05:23.983Z,2.42
2018-09-04T10:07:52.599Z,2.77
2018-09-04T10:10:21.106Z,2.50
2018-09-04T10:12:49.458Z,3.02
2018-09-04T10:15:17.840Z,2.52
2018-09-04T10:17:46.964Z,2.30
2018-09-04T10:20:15.393Z,2.27
2018-09-04T10:22:43.832Z,2.25
2018-09-04T10:25:12.206Z,2.75
2018-09-04T10:27:40.737Z,2.47
2018-09-04T10:30:13.456Z,2.52
2018-09-04T10:32:51.028Z,2.75
2018-09-04T10:35:20.023Z,2.47
2018-09-04T10:37:48.525Z,3.02
2018-09-04T10:40:22.323Z,2.33
2018-09-04T10:42:51.239Z,3.42
2018-09-04T10:45:25.058Z,2.60
2018-09-04T10:47:53.725Z,2.42
2018-09-04T10:50:22.377Z,2.75
2018-09-04T10:52:51.019Z,2.60
2018-09-04T10:55:19.477Z,3.05
2018-09-04T10:57:47.989Z,2.50
2018-09-04T11:00:17.197Z,2.58
2018-09-04T11:02:45.659Z,2.85
2018-09-04T11:05:14.040Z,3.02
2018-09-04T11:07:42.394Z,2.65
2018-09-04T11:10:10.826Z,3.02
2018-09-04T11:12:39.160Z,2.70
2018-09-04T11:15:07.527Z,2.92
2018-09-04T11:17:36.018Z,2.67
2018-09-04T11:20:04.525Z,3.15
2018-09-04T11:22:32.885Z,3.33
2018-09-04T11:25:01.278Z,2.90
2018-09-04T11:27:29.614Z,2.87
2018-09-04T11:29:58.076Z,3.15
2018-09-04T11:32:26.541Z,3.20
2018-09-04T11:34:55.122Z,3.00
2018-09-04T11:37:23.531Z,3.42
2018-09-04T11:39:52.960Z,2.95
2018-09-04T11:42:21.358Z,3.05
2018-09-04T11:44:49.791Z,2.77
2018-09-04T11:47:18.158Z,3.37
2018-09-04T11:49:46.583Z,2.98
2018-09-04T11:52:21.507Z,2.95
2018-09-04T11:54:49.916Z,2.90
2018-09-04T11:57:18.314Z,3.10
2018-09-04T11:59:46.795Z,3.55
2018-09-04T12:02:26.091Z,3.40
2018-09-04T12:04:54.517Z,3.30
2018-09-04T12:07:23.015Z,2.95
2018-09-04T12:09:51.492Z,3.55
2018-09-04T12:12:25.381Z,3.10
2018-09-04T12:14:53.724Z,3.12
2018-09-04T12:17:23.188Z,3.52
2018-09-04T12:20:00.760Z,2.95
2018-09-04T12:22:29.204Z,3.00
2018-09-04T12:24:57.657Z,3.10
2018-09-04T12:27:26.007Z,3.20
2018-09-04T12:29:54.468Z,3.55
2018-09-04T12:32:22.927Z,3.45
2018-09-04T12:34:51.305Z,3.30
2018-09-04T12:37:19.821Z,3.22
2018-09-04T12:39:53.586Z,3.98
2018-09-04T12:42:22.125Z,3.60
2018-09-04T12:44:50.879Z,4.10
2018-09-04T12:47:19.393Z,3.87
2018-09-04T12:49:47.786Z,3.87
2018-09-04T12:52:16.183Z,3.87
2018-09-04T12:54:44.623Z,3.10
2018-09-04T12:57:13.083Z,3.27
2018-09-04T12:59:41.563Z,4.00
2018-09-04T13:02:09.988Z,3.47
2018-09-04T13:04:38.474Z,3.52
2018-09-04T13:07:06.857Z,3.50
2018-09-04T13:09:35.248Z,4.33
2018-09-04T13:12:03.663Z,4.10
2018-09-04T13:14:32.176Z,4.40
2018-09-04T13:17:04.971Z,3.75
2018-09-04T13:19:34.526Z,3.50
2018-09-04T13:22:02.930Z,4.05
2018-09-04T13:24:31.651Z,3.00
2018-09-04T13:27:00.118Z,3.00
2018-09-04T13:29:28.957Z,3.30
2018-09-04T13:31:57.586Z,3.50
2018-09-04T13:34:26.028Z,3.60
2018-09-04T13:36:54.448Z,3.75
2018-09-04T13:39:23.453Z,3.42
2018-09-04T13:41:51.832Z,3.67
2018-09-04T13:44:20.212Z,3.20
2018-09-04T13:46:48.685Z,3.08
2018-09-04T13:49:17.078Z,2.98
2018-09-04T13:51:45.459Z,2.92
2018-09-04T13:54:13.862Z,2.77
2018-09-04T13:56:42.257Z,3.17
2018-09-04T13:59:10.728Z,2.58
2018-09-04T14:01:39.213Z,3.12
2018-09-04T14:04:07.559Z,2.90
2018-09-04T14:06:36.024Z,3.40
2018-09-04T14:09:05.345Z,2.87
2018-09-04T14:11:33.720Z,2.60
2018-09-04T14:14:02.158Z,2.52
2018-09-04T14:16:43.147Z,3.12
2018-09-04T14:18:59.050Z,3.30
2018-09-04T14:21:27.564Z,2.90
2018-09-04T14:23:56.076Z,2.80
2018-09-04T14:26:24.826Z,2.50
2018-09-04T14:29:07.051Z,2.10
2018-09-04T14:31:22.396Z,1.95
2018-09-04T14:33:50.885Z,2.37
2018-09-04T14:36:19.416Z,2.37
2018-09-04T14:38:47.744Z,2.65
2018-09-04T14:41:16.280Z,2.30
2018-09-04T14:43:44.656Z,1.90
2018-09-04T14:46:13.092Z,2.30
2018-09-04T14:48:41.630Z,1.87
2018-09-04T14:51:10.049Z,2.37
2018-09-04T14:53:38.479Z,2.27
2018-09-04T14:56:06.891Z,2.50
2018-09-04T14:58:35.302Z,1.70
2018-09-04T15:01:03.681Z,1.82
2018-09-04T15:03:33.050Z,1.67
2018-09-04T15:06:01.560Z,1.90
2018-09-04T15:08:29.961Z,2.15
2018-09-04T15:10:58.390Z,1.60
2018-09-04T15:13:26.822Z,2.08
2018-09-04T15:15:55.274Z,1.82
2018-09-04T15:18:23.687Z,2.10
2018-09-04T15:20:52.137Z,2.10
2018-09-04T15:23:20.692Z,1.60
2018-09-04T15:25:49.181Z,1.87
2018-09-04T15:28:17.611Z,2.98
2018-09-04T15:30:46.098Z,3.65
2018-09-04T15:33:14.493Z,2.25
2018-09-04T15:35:42.907Z,2.08
2018-09-04T15:38:11.491Z,1.90
2018-09-04T15:40:39.871Z,2.10
2018-09-04T15:43:08.295Z,1.60
2018-09-04T15:45:36.706Z,2.12
2018-09-04T15:48:05.501Z,1.85
2018-09-04T15:50:34.611Z,1.70
2018-09-04T15:53:03.815Z,2.10
2018-09-04T15:55:33.277Z,2.10
2018-09-04T15:58:10.424Z,1.72
2018-09-04T16:00:39.655Z,2.00
2018-09-04T16:03:08.680Z,2.22
2018-09-04T16:05:38.037Z,1.75
2018-09-04T16:08:06.619Z,1.85
2018-09-04T16:10:35.573Z,2.50
2018-09-04T16:13:04.103Z,2.20
2018-09-04T16:15:32.479Z,2.47
2018-09-04T16:18:00.850Z,2.00
2018-09-04T16:20:29.295Z,2.12
2018-09-04T16:22:57.811Z,1.85
2018-09-04T16:25:26.133Z,1.57
2018-09-04T16:27:54.617Z,1.85
2018-09-04T16:30:23.057Z,2.40
2018-09-04T16:32:51.472Z,2.05
2018-09-04T16:35:19.852Z,1.98
2018-09-04T16:37:48.384Z,2.10
2018-09-04T16:40:16.757Z,2.12
2018-09-04T16:42:45.144Z,1.98
2018-09-04T16:45:13.485Z,2.30
2018-09-04T16:47:42.029Z,2.30
2018-09-04T16:50:10.383Z,2.45
2018-09-04T16:52:38.748Z,1.95
2018-09-04T16:55:07.121Z,2.62
2018-09-04T16:57:35.482Z,1.98
2018-09-04T17:00:03.843Z,2.27
2018-09-04T17:02:33.025Z,1.92
2018-09-04T17:05:01.546Z,2.08
2018-09-04T17:07:29.941Z,1.98
2018-09-04T17:09:58.365Z,4.87
2018-09-04T17:12:26.815Z,5.92
2018-09-04T17:14:55.245Z,3.50
2018-09-04T17:17:23.705Z,2.22
2018-09-04T17:19:52.203Z,1.95
2018-09-04T17:22:20.675Z,2.60
2018-09-04T17:24:49.116Z,2.30
2018-09-04T17:27:17.505Z,1.90
2018-09-04T17:29:45.854Z,1.92
2018-09-04T17:32:14.396Z,2.25
2018-09-04T17:34:42.930Z,2.15
2018-09-04T17:37:11.347Z,3.45
2018-09-04T17:39:39.755Z,5.30
2018-09-04T17:42:08.158Z,4.33
2018-09-04T17:44:36.668Z,2.70
2018-09-04T17:47:05.410Z,2.47
2018-09-04T17:49:33.921Z,2.52
2018-09-04T17:52:02.356Z,2.25
2018-09-04T17:54:30.749Z,2.75
2018-09-04T17:56:59.838Z,2.67
2018-09-04T17:59:28.351Z,3.22
2018-09-04T18:01:56.813Z,2.37
2018-09-04T18:04:25.291Z,2.92
2018-09-04T18:06:53.761Z,3.42
2018-09-04T18:09:22.520Z,2.45
2018-09-04T18:11:50.897Z,2.33
2018-09-04T18:14:19.439Z,2.30
2018-09-04T18:16:47.867Z,2.70
2018-09-04T18:19:16.425Z,2.40
2018-09-04T18:21:45.150Z,2.70
2018-09-04T18:24:14.103Z,2.35
2018-09-04T18:26:42.515Z,2.80
2018-09-04T18:29:11.392Z,2.75
2018-09-04T18:31:41.063Z,2.98
2018-09-04T18:34:09.630Z,3.20
2018-09-04T18:36:38.033Z,2.55
2018-09-04T18:39:06.994Z,3.12
2018-09-04T18:41:35.778Z,2.90
2018-09-04T18:44:04.263Z,3.33
2018-09-04T18:46:32.796Z,2.87
2018-09-04T18:49:02.607Z,2.67
2018-09-04T18:51:31.067Z,2.92
2018-09-04T18:53:59.556Z,2.40
2018-09-04T18:56:28.612Z,2.80
2018-09-04T18:58:57.700Z,2.75
2018-09-04T19:01:26.269Z,2.80
2018-09-04T19:03:54.865Z,2.87
2018-09-04T19:07:09.172Z,3.33
2018-09-04T19:09:37.864Z,3.40
2018-09-04T19:12:07.061Z,3.00
2018-09-04T19:14:35.746Z,3.72
2018-09-04T19:17:04.295Z,2.87
2018-09-04T19:19:32.810Z,2.83
2018-09-04T19:22:01.777Z,2.72
2018-09-04T19:24:30.286Z,2.98
2018-09-04T19:26:58.647Z,2.92
2018-09-04T19:29:27.040Z,3.05
2018-09-04T19:31:55.487Z,2.75
2018-09-04T19:34:23.885Z,3.12
2018-09-04T19:36:52.220Z,2.90
2018-09-04T19:39:20.584Z,2.95
2018-09-04T19:41:48.936Z,2.92
2018-09-04T19:44:17.316Z,2.90
2018-09-04T19:46:45.652Z,3.58
2018-09-04T19:49:14.121Z,3.02
2018-09-04T19:51:42.501Z,2.92
2018-09-04T19:54:10.945Z,2.87
2018-09-04T19:56:39.439Z,3.25
2018-09-04T19:59:07.811Z,3.12
2018-09-04T20:01:36.340Z,3.62
2018-09-04T20:04:04.718Z,3.12
2018-09-04T20:06:33.059Z,3.00
2018-09-04T20:09:01.434Z,2.90
2018-09-04T20:11:29.880Z,2.95
2018-09-04T20:13:58.233Z,2.62
2018-09-04T20:16:26.690Z,2.80
2018-09-04T20:18:55.030Z,3.00
2018-09-04T20:21:23.321Z,2.85
2018-09-04T20:23:51.637Z,2.22
2018-09-04T20:26:19.922Z,3.40
2018-09-04T20:28:48.234Z,2.90
2018-09-04T20:31:17.218Z,3.12
2018-09-04T20:33:45.743Z,3.17
2018-09-04T20:36:14.053Z,3.20
2018-09-04T20:38:48.365Z,2.95
2018-09-04T20:41:18.479Z,2.67
2018-09-04T20:43:47.039Z,3.72
2018-09-04T20:46:15.817Z,2.90
2018-09-04T20:48:44.231Z,2.80
2018-09-04T20:51:12.529Z,2.75
2018-09-04T20:53:40.888Z,3.10
2018-09-04T20:56:09.188Z,3.10
2018-09-04T20:58:48.776Z,3.35
2018-09-04T21:01:28.389Z,3.10
2018-09-04T21:04:07.942Z,3.35
2018-09-04T21:06:48.632Z,3.70
2018-09-04T21:09:28.037Z,3.02
2018-09-04T21:11:56.471Z,3.80
2018-09-04T21:14:25.134Z,3.08
2018-09-04T21:16:53.506Z,3.15
2018-09-04T21:19:21.824Z,3.83
2018-09-04T21:21:50.148Z,3.65
2018-09-04T21:24:18.629Z,3.05
2018-09-04T21:26:46.992Z,3.45
2018-09-04T21:29:15.313Z,3.98
2018-09-04T21:31:43.691Z,2.93
2018-09-04T21:34:12.008Z,2.90
2018-09-04T21:36:40.355Z,3.45
2018-09-04T21:39:09.662Z,3.30
2018-09-04T21:41:38.048Z,3.77
2018-09-04T21:44:06.626Z,2.77
2018-09-04T21:46:35.141Z,3.35
2018-09-04T21:49:03.523Z,3.25
2018-09-04T21:51:31.923Z,3.42
2018-09-04T21:54:00.280Z,3.45
2018-09-04T21:56:28.630Z,3.87
2018-09-04T21:58:56.978Z,3.42
2018-09-04T22:01:25.362Z,3.27
2018-09-04T22:03:53.707Z,3.40
2018-09-04T22:06:22.093Z,3.75
2018-09-04T22:08:50.486Z,3.15
2018-09-04T22:11:18.842Z,3.45
2018-09-04T22:14:24.573Z,3.70
2018-09-04T22:16:52.914Z,3.47
2018-09-04T22:19:21.287Z,4.37
2018-09-04T22:21:49.728Z,3.77
2018-09-04T22:24:18.089Z,3.30
2018-09-04T22:26:46.568Z,3.55
2018-09-04T22:29:14.865Z,3.40
2018-09-04T22:31:43.217Z,3.77
2018-09-04T22:34:11.684Z,3.50
2018-09-04T22:36:40.091Z,3.20
2018-09-04T22:39:09.037Z,3.92
2018-09-04T22:41:37.635Z,3.75
2018-09-04T22:44:06.396Z,3.42
2018-09-04T22:46:34.757Z,3.83
2018-09-04T22:49:03.073Z,4.08
2018-09-04T22:51:36.186Z,3.65
2018-09-04T22:54:05.501Z,3.10
2018-09-04T22:56:33.849Z,3.72
2018-09-04T22:59:02.335Z,3.25
2018-09-04T23:01:30.657Z,3.87
2018-09-04T23:03:59.040Z,3.83
2018-09-04T23:06:27.557Z,3.90
2018-09-04T23:08:55.970Z,3.87
2018-09-04T23:11:24.316Z,4.50
2018-09-04T23:13:52.684Z,4.00
2018-09-04T23:16:21.006Z,3.60
2018-09-04T23:18:49.340Z,4.03
2018-09-04T23:21:17.716Z,4.20
2018-09-04T23:23:46.152Z,4.87
2018-09-04T23:26:14.449Z,4.58
2018-09-04T23:28:43.463Z,4.70
2018-09-04T23:31:11.826Z,4.58
2018-09-04T23:33:40.222Z,4.75
2018-09-04T23:36:08.578Z,4.65
2018-09-04T23:38:36.933Z,4.55
2018-09-04T23:41:05.288Z,4.47
2018-09-04T23:43:33.831Z,4.30
2018-09-04T23:46:02.266Z,4.60
2018-09-04T23:48:30.593Z,4.50
2018-09-04T23:51:00.397Z,4.25
2018-09-04T23:53:28.865Z,4.67
2018-09-04T23:55:57.261Z,4.60
2018-09-04T23:58:25.616Z,4.40
